sensor_id;sensor_type;location;lat;lon;timestamp;pressure;altitude;pressure_sealevel;temperature;humidity
16525;BME280;8375;33.594;-117.718;2023-02-03T00:00:09;101151.38;;;20.13;27.94
16525;BME280;8375;33.594;-117.718;2023-02-03T00:02:38;101146.69;;;19.98;27.08
16525;BME280;8375;33.594;-117.718;2023-02-03T00:05:07;101154.75;;;19.97;26.94
16525;BME280;8375;33.594;-117.718;2023-02-03T00:07:37;101152.88;;;19.89;26.63
16525;BME280;8375;33.594;-117.718;2023-02-03T00:10:07;101158.34;;;19.69;28.62
16525;BME280;8375;33.594;-117.718;2023-02-03T00:12:36;101153.94;;;19.52;28.79
16525;BME280;8375;33.594;-117.718;2023-02-03T00:15:05;101157.19;;;19.45;27.53
16525;BME280;8375;33.594;-117.718;2023-02-03T00:17:35;101156.78;;;19.32;28.85
16525;BME280;8375;33.594;-117.718;2023-02-03T00:20:05;101157.53;;;19.24;30.30
16525;BME280;8375;33.594;-117.718;2023-02-03T00:22:34;101154.16;;;19.14;29.65
16525;BME280;8375;33.594;-117.718;2023-02-03T00:25:04;101148.97;;;19.04;28.82
16525;BME280;8375;33.594;-117.718;2023-02-03T00:27:33;101156.47;;;18.99;30.12
16525;BME280;8375;33.594;-117.718;2023-02-03T00:30:02;101157.06;;;18.92;30.06
16525;BME280;8375;33.594;-117.718;2023-02-03T00:32:31;101164.19;;;18.82;29.82
16525;BME280;8375;33.594;-117.718;2023-02-03T00:35:01;101163.81;;;18.77;30.70
16525;BME280;8375;33.594;-117.718;2023-02-03T00:37:30;101163.59;;;18.70;32.04
16525;BME280;8375;33.594;-117.718;2023-02-03T00:39:58;101165.97;;;18.64;33.10
16525;BME280;8375;33.594;-117.718;2023-02-03T00:42:27;101166.56;;;18.57;33.34
16525;BME280;8375;33.594;-117.718;2023-02-03T00:44:56;101171.72;;;18.49;34.04
16525;BME280;8375;33.594;-117.718;2023-02-03T00:47:24;101181.47;;;18.39;33.86
16525;BME280;8375;33.594;-117.718;2023-02-03T00:49:53;101175.69;;;18.25;34.91
16525;BME280;8375;33.594;-117.718;2023-02-03T00:52:23;101187.09;;;18.16;35.41
16525;BME280;8375;33.594;-117.718;2023-02-03T00:54:52;101185.72;;;18.12;36.64
16525;BME280;8375;33.594;-117.718;2023-02-03T00:57:21;101185.72;;;18.02;36.73
16525;BME280;8375;33.594;-117.718;2023-02-03T00:59:50;101190.31;;;17.90;37.24
16525;BME280;8375;33.594;-117.718;2023-02-03T01:02:18;101187.00;;;17.78;38.75
16525;BME280;8375;33.594;-117.718;2023-02-03T01:04:48;101193.78;;;17.71;36.41
16525;BME280;8375;33.594;-117.718;2023-02-03T01:07:16;101195.88;;;17.57;37.51
16525;BME280;8375;33.594;-117.718;2023-02-03T01:09:47;101197.56;;;17.49;35.26
16525;BME280;8375;33.594;-117.718;2023-02-03T01:12:15;101192.88;;;17.42;35.27
16525;BME280;8375;33.594;-117.718;2023-02-03T01:14:44;101197.69;;;17.37;34.94
16525;BME280;8375;33.594;-117.718;2023-02-03T01:17:13;101199.22;;;17.30;35.58
16525;BME280;8375;33.594;-117.718;2023-02-03T01:19:42;101192.03;;;17.22;33.35
16525;BME280;8375;33.594;-117.718;2023-02-03T01:22:10;101186.63;;;17.14;34.14
16525;BME280;8375;33.594;-117.718;2023-02-03T01:24:39;101180.28;;;17.07;33.58
16525;BME280;8375;33.594;-117.718;2023-02-03T01:27:09;101183.59;;;16.99;31.53
16525;BME280;8375;33.594;-117.718;2023-02-03T01:29:38;101186.56;;;16.84;31.46
16525;BME280;8375;33.594;-117.718;2023-02-03T01:32:07;101192.06;;;16.71;31.69
16525;BME280;8375;33.594;-117.718;2023-02-03T01:34:35;101187.63;;;16.62;33.54
16525;BME280;8375;33.594;-117.718;2023-02-03T01:37:04;101201.13;;;16.57;33.56
16525;BME280;8375;33.594;-117.718;2023-02-03T01:39:33;101207.59;;;16.53;35.28
16525;BME280;8375;33.594;-117.718;2023-02-03T01:42:02;101204.94;;;16.43;35.18
16525;BME280;8375;33.594;-117.718;2023-02-03T01:44:39;101207.81;;;16.40;35.06
16525;BME280;8375;33.594;-117.718;2023-02-03T01:47:15;101207.78;;;16.31;35.79
16525;BME280;8375;33.594;-117.718;2023-02-03T01:49:48;101205.38;;;16.18;36.70
16525;BME280;8375;33.594;-117.718;2023-02-03T01:52:18;101201.44;;;16.02;36.72
16525;BME280;8375;33.594;-117.718;2023-02-03T01:54:47;101198.88;;;15.91;37.25
16525;BME280;8375;33.594;-117.718;2023-02-03T01:57:21;101205.41;;;15.85;35.42
16525;BME280;8375;33.594;-117.718;2023-02-03T01:59:54;101209.38;;;15.79;37.24
16525;BME280;8375;33.594;-117.718;2023-02-03T02:02:25;101216.53;;;15.77;39.18
16525;BME280;8375;33.594;-117.718;2023-02-03T02:05:00;101213.59;;;15.70;37.92
16525;BME280;8375;33.594;-117.718;2023-02-03T02:07:32;101213.53;;;15.61;37.82
16525;BME280;8375;33.594;-117.718;2023-02-03T02:10:02;101217.25;;;15.47;35.42
16525;BME280;8375;33.594;-117.718;2023-02-03T02:12:31;101200.16;;;15.43;36.51
16525;BME280;8375;33.594;-117.718;2023-02-03T02:15:02;101206.38;;;15.30;33.06
16525;BME280;8375;33.594;-117.718;2023-02-03T02:17:49;101211.31;;;15.23;34.62
16525;BME280;8375;33.594;-117.718;2023-02-03T02:27:19;101207.09;;;14.88;33.11
16525;BME280;8375;33.594;-117.718;2023-02-03T02:30:27;101213.41;;;14.86;34.29
16525;BME280;8375;33.594;-117.718;2023-02-03T02:33:12;101198.69;;;14.73;34.44
16525;BME280;8375;33.594;-117.718;2023-02-03T02:35:49;101197.47;;;14.66;34.49
16525;BME280;8375;33.594;-117.718;2023-02-03T02:38:30;101197.00;;;14.61;34.40
16525;BME280;8375;33.594;-117.718;2023-02-03T02:41:04;101188.69;;;14.56;34.16
16525;BME280;8375;33.594;-117.718;2023-02-03T02:43:40;101183.13;;;14.49;34.52
16525;BME280;8375;33.594;-117.718;2023-02-03T02:46:11;101192.72;;;14.37;34.69
16525;BME280;8375;33.594;-117.718;2023-02-03T02:48:47;101192.03;;;14.35;35.57
16525;BME280;8375;33.594;-117.718;2023-02-03T02:51:20;101186.31;;;14.30;34.20
16525;BME280;8375;33.594;-117.718;2023-02-03T02:53:57;101191.44;;;14.20;33.74
16525;BME280;8375;33.594;-117.718;2023-02-03T02:56:28;101190.13;;;14.14;34.85
16525;BME280;8375;33.594;-117.718;2023-02-03T02:59:01;101195.94;;;14.06;36.27
16525;BME280;8375;33.594;-117.718;2023-02-03T03:01:31;101195.56;;;14.00;36.18
16525;BME280;8375;33.594;-117.718;2023-02-03T03:04:04;101193.59;;;13.79;35.46
16525;BME280;8375;33.594;-117.718;2023-02-03T03:06:36;101182.91;;;13.71;36.62
16525;BME280;8375;33.594;-117.718;2023-02-03T03:09:09;101176.03;;;13.70;36.92
16525;BME280;8375;33.594;-117.718;2023-02-03T03:11:42;101190.38;;;13.64;37.00
16525;BME280;8375;33.594;-117.718;2023-02-03T03:14:16;101183.09;;;13.56;37.58
16525;BME280;8375;33.594;-117.718;2023-02-03T03:16:49;101193.50;;;13.45;38.11
16525;BME280;8375;33.594;-117.718;2023-02-03T03:19:24;101198.41;;;13.37;38.30
16525;BME280;8375;33.594;-117.718;2023-02-03T03:21:56;101192.69;;;13.31;38.37
16525;BME280;8375;33.594;-117.718;2023-02-03T03:24:28;101189.81;;;13.23;38.87
16525;BME280;8375;33.594;-117.718;2023-02-03T03:27:03;101182.31;;;13.18;38.78
16525;BME280;8375;33.594;-117.718;2023-02-03T03:29:38;101183.59;;;13.13;39.07
16525;BME280;8375;33.594;-117.718;2023-02-03T03:32:09;101177.66;;;13.11;38.64
16525;BME280;8375;33.594;-117.718;2023-02-03T03:34:41;101172.69;;;13.08;36.02
16525;BME280;8375;33.594;-117.718;2023-02-03T03:37:16;101176.22;;;13.06;36.40
16525;BME280;8375;33.594;-117.718;2023-02-03T03:39:50;101173.22;;;13.00;35.95
16525;BME280;8375;33.594;-117.718;2023-02-03T03:42:25;101163.84;;;12.97;35.45
16525;BME280;8375;33.594;-117.718;2023-02-03T03:44:59;101158.88;;;12.94;37.71
16525;BME280;8375;33.594;-117.718;2023-02-03T03:47:31;101163.56;;;12.89;39.20
16525;BME280;8375;33.594;-117.718;2023-02-03T03:50:05;101164.59;;;12.86;39.25
16525;BME280;8375;33.594;-117.718;2023-02-03T03:52:36;101160.78;;;12.79;38.50
16525;BME280;8375;33.594;-117.718;2023-02-03T03:55:09;101157.06;;;12.70;39.30
16525;BME280;8375;33.594;-117.718;2023-02-03T03:57:44;101159.16;;;12.65;40.17
16525;BME280;8375;33.594;-117.718;2023-02-03T04:00:18;101167.50;;;12.57;39.43
16525;BME280;8375;33.594;-117.718;2023-02-03T04:02:51;101179.78;;;12.55;41.81
16525;BME280;8375;33.594;-117.718;2023-02-03T04:05:23;101174.06;;;12.50;41.37
16525;BME280;8375;33.594;-117.718;2023-02-03T04:07:53;101181.38;;;12.45;40.24
16525;BME280;8375;33.594;-117.718;2023-02-03T04:10:26;101178.47;;;12.37;39.46
16525;BME280;8375;33.594;-117.718;2023-02-03T04:12:58;101182.63;;;12.26;37.94
16525;BME280;8375;33.594;-117.718;2023-02-03T04:15:27;101191.94;;;12.17;38.65
16525;BME280;8375;33.594;-117.718;2023-02-03T04:17:56;101185.25;;;12.13;40.15
16525;BME280;8375;33.594;-117.718;2023-02-03T04:20:29;101185.56;;;12.09;39.53
16525;BME280;8375;33.594;-117.718;2023-02-03T04:22:58;101182.22;;;12.07;38.92
16525;BME280;8375;33.594;-117.718;2023-02-03T04:25:28;101182.56;;;12.02;39.37
16525;BME280;8375;33.594;-117.718;2023-02-03T04:27:58;101187.03;;;12.00;38.88
16525;BME280;8375;33.594;-117.718;2023-02-03T04:30:27;101197.59;;;11.97;40.14
16525;BME280;8375;33.594;-117.718;2023-02-03T04:32:56;101196.69;;;11.98;41.72
16525;BME280;8375;33.594;-117.718;2023-02-03T04:35:25;101201.88;;;11.98;41.24
16525;BME280;8375;33.594;-117.718;2023-02-03T04:37:56;101188.63;;;11.88;41.75
16525;BME280;8375;33.594;-117.718;2023-02-03T04:40:28;101189.91;;;11.82;40.94
16525;BME280;8375;33.594;-117.718;2023-02-03T04:42:57;101203.09;;;11.79;41.04
16525;BME280;8375;33.594;-117.718;2023-02-03T04:45:27;101211.13;;;11.76;41.07
16525;BME280;8375;33.594;-117.718;2023-02-03T04:47:56;101214.13;;;11.70;41.99
16525;BME280;8375;33.594;-117.718;2023-02-03T04:50:25;101220.06;;;11.72;41.49
16525;BME280;8375;33.594;-117.718;2023-02-03T04:52:56;101225.34;;;11.70;41.73
16525;BME280;8375;33.594;-117.718;2023-02-03T04:55:26;101223.47;;;11.72;39.70
16525;BME280;8375;33.594;-117.718;2023-02-03T04:57:56;101226.38;;;11.68;39.17
16525;BME280;8375;33.594;-117.718;2023-02-03T05:00:26;101236.25;;;11.63;41.75
16525;BME280;8375;33.594;-117.718;2023-02-03T05:02:56;101239.97;;;11.58;41.33
16525;BME280;8375;33.594;-117.718;2023-02-03T05:05:25;101227.47;;;11.51;42.38
16525;BME280;8375;33.594;-117.718;2023-02-03T05:07:56;101222.97;;;11.40;43.23
16525;BME280;8375;33.594;-117.718;2023-02-03T05:10:25;101222.84;;;11.41;42.58
16525;BME280;8375;33.594;-117.718;2023-02-03T05:12:54;101221.97;;;11.28;42.91
16525;BME280;8375;33.594;-117.718;2023-02-03T05:15:23;101220.41;;;11.25;44.32
16525;BME280;8375;33.594;-117.718;2023-02-03T05:17:52;101224.34;;;11.18;44.48
16525;BME280;8375;33.594;-117.718;2023-02-03T05:20:21;101226.38;;;11.13;44.89
16525;BME280;8375;33.594;-117.718;2023-02-03T05:22:51;101218.97;;;11.07;44.68
16525;BME280;8375;33.594;-117.718;2023-02-03T05:25:21;101217.59;;;11.01;44.40
16525;BME280;8375;33.594;-117.718;2023-02-03T05:27:50;101217.03;;;10.96;43.32
16525;BME280;8375;33.594;-117.718;2023-02-03T05:30:20;101216.41;;;10.92;45.42
16525;BME280;8375;33.594;-117.718;2023-02-03T05:32:49;101216.59;;;10.89;46.90
16525;BME280;8375;33.594;-117.718;2023-02-03T05:35:19;101222.19;;;10.83;45.05
16525;BME280;8375;33.594;-117.718;2023-02-03T05:37:48;101218.28;;;10.76;45.16
16525;BME280;8375;33.594;-117.718;2023-02-03T05:40:17;101211.25;;;10.63;44.80
16525;BME280;8375;33.594;-117.718;2023-02-03T05:43:04;101205.03;;;10.66;45.40
16525;BME280;8375;33.594;-117.718;2023-02-03T05:45:33;101191.41;;;10.62;46.53
16525;BME280;8375;33.594;-117.718;2023-02-03T05:48:03;101197.22;;;10.66;46.29
16525;BME280;8375;33.594;-117.718;2023-02-03T05:50:33;101190.38;;;10.65;45.84
16525;BME280;8375;33.594;-117.718;2023-02-03T05:53:04;101191.41;;;10.62;47.40
16525;BME280;8375;33.594;-117.718;2023-02-03T05:55:34;101190.19;;;10.53;46.28
16525;BME280;8375;33.594;-117.718;2023-02-03T05:58:05;101185.38;;;10.47;46.56
16525;BME280;8375;33.594;-117.718;2023-02-03T06:00:34;101178.50;;;10.46;47.28
16525;BME280;8375;33.594;-117.718;2023-02-03T06:03:03;101182.84;;;10.46;47.06
16525;BME280;8375;33.594;-117.718;2023-02-03T06:05:33;101185.19;;;10.50;48.23
16525;BME280;8375;33.594;-117.718;2023-02-03T06:08:07;101191.19;;;10.51;48.28
16525;BME280;8375;33.594;-117.718;2023-02-03T06:10:35;101197.97;;;10.53;48.17
16525;BME280;8375;33.594;-117.718;2023-02-03T06:13:13;101195.56;;;10.50;47.77
16525;BME280;8375;33.594;-117.718;2023-02-03T06:15:41;101199.34;;;10.45;46.77
16525;BME280;8375;33.594;-117.718;2023-02-03T06:18:10;101192.59;;;10.42;48.02
16525;BME280;8375;33.594;-117.718;2023-02-03T06:20:39;101199.47;;;10.43;47.08
16525;BME280;8375;33.594;-117.718;2023-02-03T06:23:08;101201.22;;;10.42;47.73
16525;BME280;8375;33.594;-117.718;2023-02-03T06:25:36;101191.00;;;10.39;48.95
16525;BME280;8375;33.594;-117.718;2023-02-03T06:28:05;101178.75;;;10.27;47.88
16525;BME280;8375;33.594;-117.718;2023-02-03T06:30:35;101171.13;;;10.24;50.30
16525;BME280;8375;33.594;-117.718;2023-02-03T06:33:04;101176.44;;;10.22;50.76
16525;BME280;8375;33.594;-117.718;2023-02-03T06:35:33;101181.13;;;10.16;51.55
16525;BME280;8375;33.594;-117.718;2023-02-03T06:38:02;101178.09;;;10.09;51.36
16525;BME280;8375;33.594;-117.718;2023-02-03T06:40:30;101176.31;;;10.09;50.60
16525;BME280;8375;33.594;-117.718;2023-02-03T06:42:59;101174.78;;;10.21;51.53
16525;BME280;8375;33.594;-117.718;2023-02-03T06:45:28;101178.94;;;10.24;51.83
16525;BME280;8375;33.594;-117.718;2023-02-03T06:47:59;101177.19;;;10.24;50.44
16525;BME280;8375;33.594;-117.718;2023-02-03T06:50:28;101169.78;;;10.33;52.29
16525;BME280;8375;33.594;-117.718;2023-02-03T06:52:56;101162.25;;;10.28;52.86
16525;BME280;8375;33.594;-117.718;2023-02-03T06:55:25;101155.00;;;10.19;52.58
16525;BME280;8375;33.594;-117.718;2023-02-03T06:57:53;101163.72;;;10.18;52.92
16525;BME280;8375;33.594;-117.718;2023-02-03T07:00:22;101151.31;;;10.23;53.47
16525;BME280;8375;33.594;-117.718;2023-02-03T07:02:54;101155.38;;;10.27;53.81
16525;BME280;8375;33.594;-117.718;2023-02-03T07:05:25;101151.50;;;10.20;53.46
16525;BME280;8375;33.594;-117.718;2023-02-03T07:07:54;101153.34;;;10.18;53.62
16525;BME280;8375;33.594;-117.718;2023-02-03T07:10:24;101163.47;;;10.22;55.00
16525;BME280;8375;33.594;-117.718;2023-02-03T07:12:53;101161.88;;;10.20;54.71
16525;BME280;8375;33.594;-117.718;2023-02-03T07:15:21;101160.56;;;10.12;53.67
16525;BME280;8375;33.594;-117.718;2023-02-03T07:17:50;101152.91;;;10.11;53.98
16525;BME280;8375;33.594;-117.718;2023-02-03T07:20:21;101151.47;;;10.05;54.08
16525;BME280;8375;33.594;-117.718;2023-02-03T07:22:55;101156.84;;;10.02;54.78
16525;BME280;8375;33.594;-117.718;2023-02-03T07:25:24;101156.09;;;10.00;54.58
16525;BME280;8375;33.594;-117.718;2023-02-03T07:27:53;101150.00;;;10.01;54.59
16525;BME280;8375;33.594;-117.718;2023-02-03T07:30:22;101146.03;;;9.95;55.60
16525;BME280;8375;33.594;-117.718;2023-02-03T07:32:51;101156.56;;;9.92;55.57
16525;BME280;8375;33.594;-117.718;2023-02-03T07:35:20;101151.47;;;9.91;55.68
16525;BME280;8375;33.594;-117.718;2023-02-03T07:37:49;101158.44;;;9.90;57.12
16525;BME280;8375;33.594;-117.718;2023-02-03T07:40:20;101153.50;;;10.00;57.81
16525;BME280;8375;33.594;-117.718;2023-02-03T07:42:49;101145.28;;;9.93;57.74
16525;BME280;8375;33.594;-117.718;2023-02-03T07:45:18;101142.38;;;9.83;57.62
16525;BME280;8375;33.594;-117.718;2023-02-03T07:47:47;101141.63;;;9.81;57.45
16525;BME280;8375;33.594;-117.718;2023-02-03T07:50:16;101148.03;;;9.76;57.89
16525;BME280;8375;33.594;-117.718;2023-02-03T07:52:45;101149.56;;;9.64;56.29
16525;BME280;8375;33.594;-117.718;2023-02-03T07:55:13;101151.63;;;9.73;59.07
16525;BME280;8375;33.594;-117.718;2023-02-03T07:57:44;101146.53;;;9.72;59.75
16525;BME280;8375;33.594;-117.718;2023-02-03T08:00:14;101140.69;;;9.68;59.11
16525;BME280;8375;33.594;-117.718;2023-02-03T08:02:43;101143.75;;;9.75;58.37
16525;BME280;8375;33.594;-117.718;2023-02-03T08:05:15;101125.06;;;9.69;58.57
16525;BME280;8375;33.594;-117.718;2023-02-03T08:07:44;101110.41;;;9.68;60.97
16525;BME280;8375;33.594;-117.718;2023-02-03T08:10:13;101103.25;;;9.58;59.72
16525;BME280;8375;33.594;-117.718;2023-02-03T08:12:45;101103.31;;;9.42;58.29
16525;BME280;8375;33.594;-117.718;2023-02-03T08:15:14;101105.16;;;9.39;59.97
16525;BME280;8375;33.594;-117.718;2023-02-03T08:17:42;101101.91;;;9.36;60.34
16525;BME280;8375;33.594;-117.718;2023-02-03T08:20:12;101100.97;;;9.37;60.07
16525;BME280;8375;33.594;-117.718;2023-02-03T08:22:40;101087.78;;;9.42;61.60
16525;BME280;8375;33.594;-117.718;2023-02-03T08:25:09;101091.28;;;9.41;60.06
16525;BME280;8375;33.594;-117.718;2023-02-03T08:27:39;101083.34;;;9.44;59.93
16525;BME280;8375;33.594;-117.718;2023-02-03T08:30:12;101074.53;;;9.46;60.77
16525;BME280;8375;33.594;-117.718;2023-02-03T08:32:41;101067.50;;;9.48;60.82
16525;BME280;8375;33.594;-117.718;2023-02-03T08:35:09;101060.81;;;9.44;59.11
16525;BME280;8375;33.594;-117.718;2023-02-03T08:37:38;101055.38;;;9.49;59.94
16525;BME280;8375;33.594;-117.718;2023-02-03T08:40:07;101048.72;;;9.45;59.19
16525;BME280;8375;33.594;-117.718;2023-02-03T08:42:36;101043.97;;;9.37;58.49
16525;BME280;8375;33.594;-117.718;2023-02-03T08:45:06;101041.56;;;9.34;59.03
16525;BME280;8375;33.594;-117.718;2023-02-03T08:47:36;101037.47;;;9.30;59.98
16525;BME280;8375;33.594;-117.718;2023-02-03T08:50:07;101035.81;;;9.29;59.53
16525;BME280;8375;33.594;-117.718;2023-02-03T08:52:36;101026.94;;;9.33;60.84
16525;BME280;8375;33.594;-117.718;2023-02-03T08:55:05;101040.09;;;9.44;61.37
16525;BME280;8375;33.594;-117.718;2023-02-03T08:57:35;101038.25;;;9.46;59.01
16525;BME280;8375;33.594;-117.718;2023-02-03T09:00:06;101036.41;;;9.48;59.67
16525;BME280;8375;33.594;-117.718;2023-02-03T09:02:37;101035.84;;;9.58;59.58
16525;BME280;8375;33.594;-117.718;2023-02-03T09:05:06;101029.56;;;9.47;58.79
16525;BME280;8375;33.594;-117.718;2023-02-03T09:07:35;101036.59;;;9.45;60.84
16525;BME280;8375;33.594;-117.718;2023-02-03T09:10:04;101032.31;;;9.44;61.33
16525;BME280;8375;33.594;-117.718;2023-02-03T09:12:32;101030.84;;;9.54;61.99
16525;BME280;8375;33.594;-117.718;2023-02-03T09:15:01;101020.75;;;9.35;60.85
16525;BME280;8375;33.594;-117.718;2023-02-03T09:17:30;101026.69;;;9.07;61.29
16525;BME280;8375;33.594;-117.718;2023-02-03T09:20:00;101025.53;;;8.97;62.38
16525;BME280;8375;33.594;-117.718;2023-02-03T09:22:29;101036.94;;;8.94;63.86
16525;BME280;8375;33.594;-117.718;2023-02-03T09:24:57;101032.09;;;8.88;63.18
16525;BME280;8375;33.594;-117.718;2023-02-03T09:27:26;101036.81;;;8.95;65.79
16525;BME280;8375;33.594;-117.718;2023-02-03T09:29:55;101044.66;;;9.10;65.18
16525;BME280;8375;33.594;-117.718;2023-02-03T09:32:24;101050.97;;;9.20;65.33
16525;BME280;8375;33.594;-117.718;2023-02-03T09:34:52;101045.31;;;9.14;62.91
16525;BME280;8375;33.594;-117.718;2023-02-03T09:37:22;101039.59;;;8.92;62.20
16525;BME280;8375;33.594;-117.718;2023-02-03T09:39:51;101037.34;;;8.86;63.10
16525;BME280;8375;33.594;-117.718;2023-02-03T09:42:39;101044.53;;;8.81;64.53
16525;BME280;8375;33.594;-117.718;2023-02-03T09:45:19;101041.31;;;8.77;64.95
16525;BME280;8375;33.594;-117.718;2023-02-03T09:47:48;101042.56;;;8.70;65.74
16525;BME280;8375;33.594;-117.718;2023-02-03T09:50:23;101034.38;;;8.62;66.54
16525;BME280;8375;33.594;-117.718;2023-02-03T09:52:55;101034.22;;;8.65;66.29
16525;BME280;8375;33.594;-117.718;2023-02-03T09:55:29;101030.59;;;8.68;66.72
16525;BME280;8375;33.594;-117.718;2023-02-03T09:58:03;101029.03;;;8.65;66.39
16525;BME280;8375;33.594;-117.718;2023-02-03T10:00:35;101025.59;;;8.64;67.14
16525;BME280;8375;33.594;-117.718;2023-02-03T10:03:14;101034.88;;;8.69;66.82
16525;BME280;8375;33.594;-117.718;2023-02-03T10:06:08;101035.22;;;8.62;65.99
16525;BME280;8375;33.594;-117.718;2023-02-03T10:08:55;101032.38;;;8.51;65.74
16525;BME280;8375;33.594;-117.718;2023-02-03T10:11:44;101038.13;;;8.40;66.46
16525;BME280;8375;33.594;-117.718;2023-02-03T10:14:27;101036.84;;;8.31;66.49
16525;BME280;8375;33.594;-117.718;2023-02-03T10:17:18;101023.91;;;8.31;67.65
16525;BME280;8375;33.594;-117.718;2023-02-03T10:19:55;101025.34;;;8.37;67.80
16525;BME280;8375;33.594;-117.718;2023-02-03T10:22:29;101013.66;;;8.46;68.30
16525;BME280;8375;33.594;-117.718;2023-02-03T10:25:06;101005.06;;;8.45;68.06
16525;BME280;8375;33.594;-117.718;2023-02-03T10:27:36;101004.91;;;8.48;67.07
16525;BME280;8375;33.594;-117.718;2023-02-03T10:30:14;100990.69;;;8.40;66.52
16525;BME280;8375;33.594;-117.718;2023-02-03T10:32:46;100984.03;;;8.35;67.67
16525;BME280;8375;33.594;-117.718;2023-02-03T10:35:16;100983.09;;;8.36;67.52
16525;BME280;8375;33.594;-117.718;2023-02-03T10:37:47;100983.44;;;8.46;69.05
16525;BME280;8375;33.594;-117.718;2023-02-03T10:40:20;100984.94;;;8.34;67.93
16525;BME280;8375;33.594;-117.718;2023-02-03T10:42:52;100981.53;;;8.34;67.35
16525;BME280;8375;33.594;-117.718;2023-02-03T10:45:38;100967.91;;;8.46;69.04
16525;BME280;8375;33.594;-117.718;2023-02-03T10:48:11;100968.09;;;8.43;68.05
16525;BME280;8375;33.594;-117.718;2023-02-03T10:50:45;100972.53;;;8.41;67.85
16525;BME280;8375;33.594;-117.718;2023-02-03T10:53:23;100973.69;;;8.35;67.50
16525;BME280;8375;33.594;-117.718;2023-02-03T10:56:01;100966.25;;;8.29;66.99
16525;BME280;8375;33.594;-117.718;2023-02-03T10:58:31;100974.88;;;8.30;67.21
16525;BME280;8375;33.594;-117.718;2023-02-03T11:01:09;100966.84;;;8.34;67.37
16525;BME280;8375;33.594;-117.718;2023-02-03T11:03:40;100969.53;;;8.33;67.17
16525;BME280;8375;33.594;-117.718;2023-02-03T11:06:11;100971.09;;;8.35;66.00
16525;BME280;8375;33.594;-117.718;2023-02-03T11:08:42;100975.34;;;8.36;67.07
16525;BME280;8375;33.594;-117.718;2023-02-03T11:11:19;100975.69;;;8.46;67.08
16525;BME280;8375;33.594;-117.718;2023-02-03T11:13:52;100977.41;;;8.46;68.33
16525;BME280;8375;33.594;-117.718;2023-02-03T11:16:21;100982.28;;;8.52;70.08
16525;BME280;8375;33.594;-117.718;2023-02-03T11:18:54;100981.28;;;8.55;69.46
16525;BME280;8375;33.594;-117.718;2023-02-03T11:21:24;100979.59;;;8.70;69.79
16525;BME280;8375;33.594;-117.718;2023-02-03T11:24:01;100990.88;;;8.69;70.13
16525;BME280;8375;33.594;-117.718;2023-02-03T11:26:35;100997.66;;;8.55;69.94
16525;BME280;8375;33.594;-117.718;2023-02-03T11:29:05;100996.78;;;8.39;69.08
16525;BME280;8375;33.594;-117.718;2023-02-03T11:31:35;101005.41;;;8.39;70.70
16525;BME280;8375;33.594;-117.718;2023-02-03T11:34:05;100993.44;;;8.04;68.19
16525;BME280;8375;33.594;-117.718;2023-02-03T11:36:35;100995.63;;;8.28;72.09
16525;BME280;8375;33.594;-117.718;2023-02-03T11:39:24;100992.38;;;8.41;72.81
16525;BME280;8375;33.594;-117.718;2023-02-03T11:41:55;100983.63;;;8.11;70.08
16525;BME280;8375;33.594;-117.718;2023-02-03T11:44:25;100972.34;;;7.96;71.97
16525;BME280;8375;33.594;-117.718;2023-02-03T11:46:58;100983.59;;;7.95;72.87
16525;BME280;8375;33.594;-117.718;2023-02-03T11:49:53;100990.38;;;7.98;72.71
16525;BME280;8375;33.594;-117.718;2023-02-03T11:52:44;100994.50;;;7.84;72.33
16525;BME280;8375;33.594;-117.718;2023-02-03T11:55:21;101000.03;;;7.94;72.78
16525;BME280;8375;33.594;-117.718;2023-02-03T12:00:54;100989.94;;;7.56;72.09
16525;BME280;8375;33.594;-117.718;2023-02-03T12:09:45;100991.25;;;7.81;76.30
16525;BME280;8375;33.594;-117.718;2023-02-03T12:12:44;100983.06;;;7.88;75.25
16525;BME280;8375;33.594;-117.718;2023-02-03T12:15:27;100974.06;;;7.80;74.61
16525;BME280;8375;33.594;-117.718;2023-02-03T12:18:19;100978.06;;;7.85;75.79
16525;BME280;8375;33.594;-117.718;2023-02-03T12:21:08;100999.91;;;7.80;75.08
16525;BME280;8375;33.594;-117.718;2023-02-03T12:23:47;100999.16;;;7.77;74.22
16525;BME280;8375;33.594;-117.718;2023-02-03T12:26:23;101010.69;;;7.88;73.53
16525;BME280;8375;33.594;-117.718;2023-02-03T12:29:00;101008.53;;;7.96;73.61
16525;BME280;8375;33.594;-117.718;2023-02-03T12:31:36;101004.88;;;8.00;71.53
16525;BME280;8375;33.594;-117.718;2023-02-03T12:34:16;101022.75;;;8.05;69.31
16525;BME280;8375;33.594;-117.718;2023-02-03T12:36:49;101028.34;;;8.13;69.48
16525;BME280;8375;33.594;-117.718;2023-02-03T12:39:25;101033.50;;;8.13;68.74
16525;BME280;8375;33.594;-117.718;2023-02-03T12:41:58;101033.59;;;8.12;68.77
16525;BME280;8375;33.594;-117.718;2023-02-03T12:44:31;101037.09;;;8.11;68.96
16525;BME280;8375;33.594;-117.718;2023-02-03T12:47:10;101031.41;;;8.04;68.88
16525;BME280;8375;33.594;-117.718;2023-02-03T12:49:43;101026.41;;;8.01;69.69
16525;BME280;8375;33.594;-117.718;2023-02-03T12:52:20;101025.88;;;7.94;69.54
16525;BME280;8375;33.594;-117.718;2023-02-03T12:55:00;101023.06;;;8.15;71.87
16525;BME280;8375;33.594;-117.718;2023-02-03T12:57:34;101022.00;;;8.19;71.62
16525;BME280;8375;33.594;-117.718;2023-02-03T13:00:19;101036.63;;;8.36;74.20
16525;BME280;8375;33.594;-117.718;2023-02-03T13:03:10;101026.69;;;8.12;70.69
16525;BME280;8375;33.594;-117.718;2023-02-03T13:05:43;101024.06;;;7.96;72.23
16525;BME280;8375;33.594;-117.718;2023-02-03T13:08:22;101025.59;;;7.83;73.05
16525;BME280;8375;33.594;-117.718;2023-02-03T13:10:58;101035.50;;;7.74;73.17
16525;BME280;8375;33.594;-117.718;2023-02-03T13:13:35;101035.19;;;7.81;73.69
16525;BME280;8375;33.594;-117.718;2023-02-03T13:16:08;101053.00;;;7.69;72.46